Česky Dansk Deutsch English Español Suomi Français Magyar Italiano Nederlands norsk Polski Português svenska Türkçe

 

Het Weer

Rennes (Frankrijk)

13:30, 23 augustus 2016 (GMT)

NWNNE
WE
SWSSE
Home            
Rennes Dinard St-Nazaire Saint-Brieuc Nantes Angers Lann Bihoue Jersey Airport Alencon Le Mans Lannion / Servel La Roche-Sur-Yon Caen Guernsey Airport Morlaix / Ploujean Cherbourg / Maupertus Quimper Landivisiau Alderney / Channel Island Tours Lanveoc Poulmic Brest La Heve

Om een weerknop op uw website of weblog te plaatsen, copieer onderstaande code en plak die in uw pagina. In het eerste vakje staat HTML-code, in het tweede vakje UBB-code.


Add to Google

Details

Wind speed:2 bf, 6 kn, 3.1 m/s, 6.9 miles/h, 11.1 km/h
Wind direction:ESE, 110° - SW, 230°
Visibility:Greater than 10000 m, 10 km, 32800 ft, 6.2 miles
Clouds:CAVOC
Temperature:34°C, 93°F
Gefühlte Temperatur:33°C, 91°F
Dew-point:13°C, 55°F
Atmospheric pressure:1019 hPa, 764.3 mmHg, 30.09 inHg, 1.006 atm
Relative humidity:28.2 %
METAR:LFRN 231330Z AUTO 15006KT 110V230 CAVOK 34/13 Q1019 NOSIG

Snelkoppelingen

Actuele weersinformatie van de hele wereld. Voeg locaties toe met het plus (+) symbool. Deze snelkoppelingen kunnen worden toegevoegd aan Google.

Lid van de Technetium groep

website free tracking
StatCounter NetStat W3C Validator

13-08-2022 11:35:53
astro.technetium.be money.technetium.be phote.technetium.be tafeltennistafel.technetium.be www.ligfiets.net